createdAt,value
2016-11-08T00:00:19.323Z,26.95
2016-11-08T00:01:20.002Z,27.09
2016-11-08T00:02:19.963Z,27.03
2016-11-08T00:03:19.971Z,26.94
2016-11-08T00:04:19.665Z,26.85
2016-11-08T00:05:19.668Z,26.94
2016-11-08T00:06:20.063Z,26.84
2016-11-08T00:07:20.190Z,26.85
2016-11-08T00:08:19.695Z,26.88
2016-11-08T00:09:21.435Z,26.84
2016-11-08T00:10:19.731Z,26.84
2016-11-08T00:11:20.085Z,26.84
2016-11-08T00:12:20.088Z,26.94
2016-11-08T00:13:19.730Z,26.91
2016-11-08T00:14:20.055Z,26.87
2016-11-08T00:15:19.434Z,26.84
2016-11-08T00:16:19.752Z,26.82
2016-11-08T00:17:19.766Z,26.87
2016-11-08T00:18:20.180Z,26.81
2016-11-08T00:19:19.778Z,26.85
2016-11-08T00:20:21.066Z,26.82
2016-11-08T00:21:19.528Z,26.84
2016-11-08T00:22:20.118Z,26.87
2016-11-08T00:23:20.122Z,26.81
2016-11-08T00:24:20.183Z,26.82
2016-11-08T00:25:19.823Z,26.89
2016-11-08T00:26:19.830Z,26.84
2016-11-08T00:27:19.530Z,26.85
2016-11-08T00:28:19.896Z,26.77
2016-11-08T00:29:20.043Z,26.84
2016-11-08T00:30:19.863Z,26.81
2016-11-08T00:31:21.240Z,26.81
2016-11-08T00:32:20.189Z,26.73
2016-11-08T00:33:19.935Z,26.81
2016-11-08T00:34:19.890Z,26.75
2016-11-08T00:35:19.901Z,26.85
2016-11-08T00:36:20.269Z,26.89
2016-11-08T00:37:19.917Z,26.88
2016-11-08T00:38:20.284Z,26.85
2016-11-08T00:39:19.621Z,26.84
2016-11-08T00:40:20.037Z,26.84
2016-11-08T00:41:20.046Z,26.69
2016-11-08T00:42:20.930Z,26.8
2016-11-08T00:43:19.962Z,26.8
2016-11-08T00:44:20.383Z,26.82
2016-11-08T00:45:19.978Z,26.84
2016-11-08T00:46:20.025Z,26.81
2016-11-08T00:47:19.992Z,26.87
2016-11-08T00:48:19.996Z,26.8
2016-11-08T00:49:20.367Z,26.77
2016-11-08T00:50:20.016Z,26.72
2016-11-08T00:51:20.348Z,26.7
2016-11-08T00:52:19.803Z,26.69
2016-11-08T00:53:21.402Z,26.69
2016-11-08T00:54:20.358Z,26.69
2016-11-08T00:55:20.202Z,26.84
2016-11-08T00:56:20.375Z,26.82
2016-11-08T00:57:20.070Z,26.81
2016-11-08T00:58:20.388Z,26.84
2016-11-08T00:59:20.396Z,26.77
2016-11-08T01:00:20.089Z,26.76
2016-11-08T01:01:20.408Z,26.8
2016-11-08T01:02:20.103Z,26.63
2016-11-08T01:03:19.849Z,26.72
2016-11-08T01:04:20.977Z,26.7
2016-11-08T01:05:19.810Z,26.87
2016-11-08T01:06:20.284Z,26.8
2016-11-08T01:07:20.202Z,26.67
2016-11-08T01:08:20.148Z,26.66
2016-11-08T01:09:20.470Z,26.73
2016-11-08T01:10:20.477Z,26.69
2016-11-08T01:11:20.175Z,26.7
2016-11-08T01:12:20.570Z,26.69
2016-11-08T01:13:20.554Z,26.66
2016-11-08T01:14:20.561Z,26.66
2016-11-08T01:15:21.544Z,26.65
2016-11-08T01:16:20.211Z,26.76
2016-11-08T01:17:20.004Z,26.8
2016-11-08T01:18:20.526Z,26.8
2016-11-08T01:19:20.333Z,26.63
2016-11-08T01:20:20.240Z,26.65
2016-11-08T01:21:20.561Z,26.67
2016-11-08T01:22:19.944Z,26.67
2016-11-08T01:23:20.052Z,26.67
2016-11-08T01:24:20.274Z,26.69
2016-11-08T01:25:20.329Z,26.75
2016-11-08T01:26:21.237Z,26.66
2016-11-08T01:27:19.981Z,26.7
2016-11-08T01:28:20.354Z,26.63
2016-11-08T01:29:20.338Z,26.66
2016-11-08T01:30:20.053Z,26.77
2016-11-08T01:31:20.675Z,26.84
2016-11-08T01:32:20.073Z,26.8
2016-11-08T01:33:20.338Z,26.67
2016-11-08T01:34:20.347Z,26.63
2016-11-08T01:35:20.341Z,26.73
2016-11-08T01:36:20.363Z,26.7
2016-11-08T01:37:20.307Z,26.69
2016-11-08T01:38:20.144Z,26.72
2016-11-08T01:39:22.307Z,26.69
2016-11-08T01:40:20.704Z,26.62
2016-11-08T01:41:21.065Z,26.65
2016-11-08T01:42:20.096Z,26.66
2016-11-08T01:43:20.723Z,26.67
2016-11-08T01:44:20.423Z,26.66
2016-11-08T01:45:20.794Z,26.63
2016-11-08T01:46:20.486Z,26.7
2016-11-08T01:47:20.443Z,26.7
2016-11-08T01:48:20.139Z,26.65
2016-11-08T01:49:20.776Z,26.8
2016-11-08T01:50:20.516Z,26.67
2016-11-08T01:51:20.477Z,26.66
2016-11-08T01:52:21.249Z,26.63
2016-11-08T01:53:20.489Z,26.66
2016-11-08T01:54:20.186Z,26.7
2016-11-08T01:55:20.505Z,26.72
2016-11-08T01:56:20.914Z,26.62
2016-11-08T01:57:20.519Z,26.76
2016-11-08T01:58:20.577Z,26.75
2016-11-08T01:59:20.585Z,26.67
2016-11-08T02:00:20.545Z,26.69
2016-11-08T02:01:22.295Z,26.73
2016-11-08T02:02:20.875Z,26.7
2016-11-08T02:03:21.068Z,26.69
2016-11-08T02:04:20.572Z,26.69
2016-11-08T02:05:20.945Z,26.75
2016-11-08T02:06:20.901Z,26.69
2016-11-08T02:07:20.594Z,26.75
2016-11-08T02:08:20.656Z,26.65
2016-11-08T02:09:20.713Z,26.73
2016-11-08T02:10:20.335Z,26.62
2016-11-08T02:11:20.942Z,26.69
2016-11-08T02:12:22.100Z,26.69
2016-11-08T02:13:20.332Z,26.67
2016-11-08T02:14:20.999Z,26.63
2016-11-08T02:15:20.396Z,26.65
2016-11-08T02:16:20.403Z,26.67
2016-11-08T02:17:21.027Z,26.7
2016-11-08T02:18:20.679Z,26.69
2016-11-08T02:19:20.738Z,26.63
2016-11-08T02:20:20.745Z,26.7
2016-11-08T02:21:20.389Z,26.7
2016-11-08T02:22:20.745Z,26.63
2016-11-08T02:23:21.468Z,26.52
2016-11-08T02:24:20.728Z,26.67
2016-11-08T02:25:21.146Z,26.6
2016-11-08T02:26:20.794Z,26.62
2016-11-08T02:27:21.578Z,26.55
2016-11-08T02:28:21.069Z,26.58
2016-11-08T02:29:21.129Z,26.51
2016-11-08T02:30:20.819Z,26.69
2016-11-08T02:31:21.144Z,26.66
2016-11-08T02:32:21.097Z,26.62
2016-11-08T02:33:21.159Z,26.55
2016-11-08T02:34:20.537Z,26.63
2016-11-08T02:35:20.810Z,26.55
2016-11-08T02:36:21.580Z,26.51
2016-11-08T02:37:21.186Z,26.58
2016-11-08T02:38:21.834Z,26.57
2016-11-08T02:39:20.887Z,26.65
2016-11-08T02:40:21.161Z,26.63
2016-11-08T02:41:21.166Z,26.66
2016-11-08T02:42:20.915Z,26.57
2016-11-08T02:43:20.554Z,26.52
2016-11-08T02:44:20.878Z,26.5
2016-11-08T02:45:20.937Z,26.67
2016-11-08T02:46:20.891Z,26.66
2016-11-08T02:47:20.671Z,26.73
2016-11-08T02:48:20.956Z,26.52
2016-11-08T02:49:21.516Z,26.58
2016-11-08T02:50:21.274Z,26.54
2016-11-08T02:51:21.327Z,26.52
2016-11-08T02:52:21.250Z,26.5
2016-11-08T02:53:20.942Z,26.51
2016-11-08T02:54:21.004Z,26.72
2016-11-08T02:55:20.959Z,26.67
2016-11-08T02:56:21.330Z,26.52
2016-11-08T02:57:21.290Z,26.55
2016-11-08T02:58:22.273Z,26.55
2016-11-08T02:59:20.989Z,26.57
2016-11-08T03:00:21.496Z,26.55
2016-11-08T03:01:21.005Z,26.58
2016-11-08T03:02:21.330Z,26.55
2016-11-08T03:03:21.573Z,26.58
2016-11-08T03:04:21.389Z,26.57
2016-11-08T03:05:21.345Z,26.6
2016-11-08T03:06:21.353Z,26.63
2016-11-08T03:07:20.735Z,26.7
2016-11-08T03:08:21.059Z,26.52
2016-11-08T03:09:22.332Z,26.62
2016-11-08T03:10:20.813Z,26.51
2016-11-08T03:11:21.493Z,26.55
2016-11-08T03:12:21.090Z,26.57
2016-11-08T03:13:22.194Z,26.5
2016-11-08T03:14:21.100Z,26.55
2016-11-08T03:15:21.162Z,26.57
2016-11-08T03:16:21.107Z,26.62
2016-11-08T03:17:21.490Z,26.73
2016-11-08T03:18:21.132Z,26.6
2016-11-08T03:19:21.452Z,26.54
2016-11-08T03:20:21.149Z,26.6
2016-11-08T03:21:21.524Z,26.48
2016-11-08T03:22:21.525Z,26.52
2016-11-08T03:23:20.859Z,26.54
2016-11-08T03:24:22.594Z,26.65
2016-11-08T03:25:21.186Z,26.67
2016-11-08T03:26:21.195Z,26.75
2016-11-08T03:27:21.301Z,26.5
2016-11-08T03:28:21.257Z,26.45
2016-11-08T03:29:20.954Z,26.52
2016-11-08T03:30:21.262Z,26.48
2016-11-08T03:31:21.232Z,26.44
2016-11-08T03:32:21.290Z,26.57
2016-11-08T03:33:21.611Z,26.58
2016-11-08T03:34:21.254Z,26.48
2016-11-08T03:35:22.124Z,26.54
2016-11-08T03:36:21.011Z,26.57
2016-11-08T03:37:21.276Z,26.51
2016-11-08T03:38:21.336Z,26.62
2016-11-08T03:39:21.443Z,26.66
2016-11-08T03:40:21.296Z,26.51
2016-11-08T03:41:21.620Z,26.54
2016-11-08T03:42:21.320Z,26.66
2016-11-08T03:43:21.683Z,26.6
2016-11-08T03:44:21.016Z,26.72
2016-11-08T03:45:21.653Z,26.69
2016-11-08T03:46:22.007Z,26.73
2016-11-08T03:47:21.350Z,26.66
2016-11-08T03:48:21.094Z,26.52
2016-11-08T03:49:21.367Z,26.6
2016-11-08T03:50:21.061Z,26.65
2016-11-08T03:51:21.067Z,26.57
2016-11-08T03:52:21.388Z,26.48
2016-11-08T03:53:21.708Z,26.5
2016-11-08T03:54:21.456Z,26.58
2016-11-08T03:55:21.099Z,26.73
2016-11-08T03:56:21.782Z,26.65
2016-11-08T03:57:21.874Z,26.57
2016-11-08T03:58:21.121Z,26.55
2016-11-08T03:59:21.756Z,26.51
2016-11-08T04:00:21.810Z,26.57
2016-11-08T04:01:21.508Z,26.52
2016-11-08T04:02:21.513Z,26.5
2016-11-08T04:03:21.522Z,26.69
2016-11-08T04:04:21.793Z,26.72
2016-11-08T04:05:21.797Z,26.47
2016-11-08T04:06:21.181Z,26.55
2016-11-08T04:07:21.865Z,26.5
2016-11-08T04:08:22.069Z,26.51
2016-11-08T04:09:21.826Z,26.52
2016-11-08T04:10:23.349Z,26.62
2016-11-08T04:11:21.269Z,26.67
2016-11-08T04:12:21.274Z,26.7
2016-11-08T04:13:21.544Z,26.65
2016-11-08T04:14:21.868Z,26.52
2016-11-08T04:15:21.559Z,26.55
2016-11-08T04:16:21.573Z,26.57
2016-11-08T04:17:21.940Z,26.48
2016-11-08T04:18:21.897Z,26.48
2016-11-08T04:19:21.902Z,26.5
2016-11-08T04:20:21.909Z,26.45
2016-11-08T04:21:23.018Z,26.52
2016-11-08T04:22:21.925Z,26.54
2016-11-08T04:23:21.669Z,26.51
2016-11-08T04:24:21.628Z,26.57
2016-11-08T04:25:21.635Z,26.52
2016-11-08T04:26:21.953Z,26.57
2016-11-08T04:27:21.700Z,26.43
2016-11-08T04:28:21.766Z,26.54
2016-11-08T04:29:21.713Z,26.57
2016-11-08T04:30:21.726Z,26.51
2016-11-08T04:31:21.732Z,26.5
2016-11-08T04:32:23.026Z,26.48
2016-11-08T04:33:22.060Z,26.45
2016-11-08T04:34:22.112Z,26.43
2016-11-08T04:35:21.395Z,26.4
2016-11-08T04:36:21.717Z,26.39
2016-11-08T04:37:21.774Z,26.51
2016-11-08T04:38:21.733Z,26.54
2016-11-08T04:39:21.788Z,26.48
2016-11-08T04:40:21.746Z,26.48
2016-11-08T04:41:21.806Z,26.4
2016-11-08T04:42:21.811Z,26.4
2016-11-08T04:43:22.456Z,26.36
2016-11-08T04:44:21.779Z,26.43
2016-11-08T04:45:21.837Z,26.39
2016-11-08T04:46:21.480Z,26.43
2016-11-08T04:47:21.803Z,26.44
2016-11-08T04:48:21.493Z,26.52
2016-11-08T04:49:21.866Z,26.54
2016-11-08T04:50:22.187Z,26.48
2016-11-08T04:51:21.836Z,26.45
2016-11-08T04:52:22.150Z,26.36
2016-11-08T04:53:21.844Z,26.45
2016-11-08T04:54:22.764Z,26.39
2016-11-08T04:55:22.172Z,26.39
2016-11-08T04:56:22.229Z,26.39
2016-11-08T04:57:22.192Z,26.4
2016-11-08T04:58:22.199Z,26.45
2016-11-08T04:59:22.256Z,26.43
2016-11-08T05:00:21.946Z,26.47
2016-11-08T05:01:21.641Z,26.45
2016-11-08T05:02:21.912Z,26.52
2016-11-08T05:03:21.608Z,26.45
2016-11-08T05:04:21.926Z,26.48
2016-11-08T05:05:22.431Z,26.43
2016-11-08T05:06:21.939Z,26.37
2016-11-08T05:07:21.952Z,26.43
2016-11-08T05:08:21.727Z,26.39
2016-11-08T05:09:21.967Z,26.37
2016-11-08T05:10:21.840Z,26.43
2016-11-08T05:11:22.291Z,26.43
2016-11-08T05:12:21.989Z,26.35
2016-11-08T05:13:22.390Z,26.37
2016-11-08T05:14:22.003Z,26.45
2016-11-08T05:15:22.322Z,26.45
2016-11-08T05:16:22.618Z,26.36
2016-11-08T05:17:22.101Z,26.5
2016-11-08T05:18:22.037Z,26.58
2016-11-08T05:19:22.037Z,26.48
2016-11-08T05:20:22.362Z,26.44
2016-11-08T05:21:21.791Z,26.43
2016-11-08T05:22:22.114Z,26.37
2016-11-08T05:23:22.118Z,26.39
2016-11-08T05:24:22.076Z,26.45
2016-11-08T05:25:22.094Z,26.48
2016-11-08T05:26:22.404Z,26.4
2016-11-08T05:27:22.357Z,26.39
2016-11-08T05:28:21.894Z,26.47
2016-11-08T05:29:23.087Z,26.43
2016-11-08T05:30:21.811Z,26.52
2016-11-08T05:31:22.493Z,26.48
2016-11-08T05:32:22.449Z,26.47
2016-11-08T05:33:22.462Z,26.52
2016-11-08T05:34:22.518Z,26.45
2016-11-08T05:35:22.525Z,26.45
2016-11-08T05:36:22.168Z,26.4
2016-11-08T05:37:22.174Z,26.48
2016-11-08T05:38:21.967Z,26.47
2016-11-08T05:39:21.876Z,26.57
2016-11-08T05:40:23.407Z,26.47
2016-11-08T05:41:22.204Z,26.43
2016-11-08T05:42:22.523Z,26.45
2016-11-08T05:43:22.220Z,26.43
2016-11-08T05:44:22.229Z,26.51
2016-11-08T05:45:22.259Z,26.37
2016-11-08T05:46:22.289Z,26.36
2016-11-08T05:47:22.559Z,26.44
2016-11-08T05:48:21.942Z,26.4
2016-11-08T05:49:22.262Z,26.39
2016-11-08T05:50:22.633Z,26.44
2016-11-08T05:51:23.193Z,26.45
2016-11-08T05:52:22.298Z,26.51
2016-11-08T05:53:22.278Z,26.37
2016-11-08T05:54:22.349Z,26.32
2016-11-08T05:55:22.421Z,26.37
2016-11-08T05:56:22.051Z,26.36
2016-11-08T05:57:22.327Z,26.3
2016-11-08T05:58:22.655Z,26.3
2016-11-08T05:59:22.652Z,26.32
2016-11-08T06:00:22.394Z,26.29
2016-11-08T06:01:22.435Z,26.3
2016-11-08T06:02:23.224Z,26.28
2016-11-08T06:03:22.106Z,26.21
2016-11-08T06:04:22.687Z,26.32
2016-11-08T06:05:22.695Z,26.36
2016-11-08T06:06:22.436Z,26.4
2016-11-08T06:07:22.760Z,26.29
2016-11-08T06:08:22.718Z,26.26
2016-11-08T06:09:22.463Z,26.29
2016-11-08T06:10:22.739Z,26.3
2016-11-08T06:11:22.788Z,26.25
2016-11-08T06:12:22.486Z,26.26
2016-11-08T06:13:22.643Z,26.32
2016-11-08T06:14:22.447Z,26.29
2016-11-08T06:15:22.196Z,26.28
2016-11-08T06:16:22.468Z,26.32
2016-11-08T06:17:23.071Z,26.32
2016-11-08T06:18:22.526Z,26.32
2016-11-08T06:19:22.810Z,26.32
2016-11-08T06:20:22.496Z,26.26
2016-11-08T06:21:22.870Z,26.3
2016-11-08T06:22:22.876Z,26.32
2016-11-08T06:23:22.515Z,26.4
2016-11-08T06:24:22.728Z,26.4
2016-11-08T06:25:22.217Z,26.4
2016-11-08T06:26:24.317Z,26.33
2016-11-08T06:27:22.857Z,26.26
2016-11-08T06:28:22.735Z,26.23
2016-11-08T06:29:22.560Z,26.28
2016-11-08T06:30:22.618Z,26.26
2016-11-08T06:31:22.573Z,26.17
2016-11-08T06:32:22.272Z,26.3
2016-11-08T06:33:22.624Z,26.47
2016-11-08T06:34:22.647Z,26.43
2016-11-08T06:35:22.601Z,26.3
2016-11-08T06:36:22.346Z,26.28
2016-11-08T06:37:23.847Z,26.2
2016-11-08T06:38:22.317Z,26.23
2016-11-08T06:39:22.674Z,26.3
2016-11-08T06:40:22.688Z,26.23
2016-11-08T06:41:22.386Z,26.3
2016-11-08T06:42:22.427Z,26.39
2016-11-08T06:43:22.973Z,26.35
2016-11-08T06:44:22.981Z,26.28
2016-11-08T06:45:22.993Z,26.3
2016-11-08T06:46:23.001Z,26.25
2016-11-08T06:47:22.996Z,26.3
2016-11-08T06:48:23.606Z,26.28
2016-11-08T06:49:22.756Z,26.3
2016-11-08T06:50:22.450Z,26.4
2016-11-08T06:51:22.722Z,26.37
2016-11-08T06:52:23.042Z,26.4
2016-11-08T06:53:23.049Z,26.39
2016-11-08T06:54:22.847Z,26.33
2016-11-08T06:55:22.752Z,26.33
2016-11-08T06:56:23.075Z,26.47
2016-11-08T06:57:22.765Z,26.44
2016-11-08T06:58:22.875Z,26.36
2016-11-08T06:59:23.285Z,26.45
2016-11-08T07:00:22.790Z,26.43
2016-11-08T07:01:22.794Z,26.54
2016-11-08T07:02:23.169Z,26.55
2016-11-08T07:03:23.828Z,26.44
2016-11-08T07:04:23.138Z,26.52
2016-11-08T07:05:22.826Z,26.4
2016-11-08T07:06:22.836Z,26.5
2016-11-08T07:07:23.153Z,26.36
2016-11-08T07:08:22.856Z,26.57
2016-11-08T07:09:22.912Z,26.54
2016-11-08T07:10:23.524Z,26.55
2016-11-08T07:11:22.920Z,26.47
2016-11-08T07:12:24.854Z,26.51
2016-11-08T07:13:22.938Z,26.57
2016-11-08T07:14:23.655Z,26.52
2016-11-08T07:15:23.222Z,26.44
2016-11-08T07:16:22.598Z,26.54
2016-11-08T07:17:22.918Z,26.45
2016-11-08T07:18:22.659Z,26.51
2016-11-08T07:19:22.977Z,26.72
2016-11-08T07:20:22.939Z,26.66
2016-11-08T07:21:22.997Z,26.75
2016-11-08T07:22:23.010Z,26.87
2016-11-08T07:23:24.186Z,27.06
2016-11-08T07:24:22.655Z,27.25
2016-11-08T07:25:23.476Z,27.4
2016-11-08T07:26:22.984Z,27.72
2016-11-08T07:27:23.038Z,27.87
2016-11-08T07:28:22.998Z,28.07
2016-11-08T07:29:23.003Z,28.37
2016-11-08T07:30:23.322Z,28.54
2016-11-08T07:31:23.081Z,28.59
2016-11-08T07:32:23.029Z,28.8
2016-11-08T07:33:22.858Z,29.02
2016-11-08T07:34:24.555Z,29.05
2016-11-08T07:35:22.735Z,29.11
2016-11-08T07:36:23.244Z,29.27
2016-11-08T07:37:23.373Z,29.42
2016-11-08T07:38:23.382Z,29.45
2016-11-08T07:39:23.444Z,29.51
2016-11-08T07:40:23.449Z,29.6
2016-11-08T07:41:22.780Z,29.73
2016-11-08T07:42:23.416Z,29.74
2016-11-08T07:43:23.162Z,29.85
2016-11-08T07:44:23.516Z,29.82
2016-11-08T07:45:24.335Z,29.89
2016-11-08T07:46:23.128Z,29.87
2016-11-08T07:47:23.191Z,29.86
2016-11-08T07:48:23.179Z,29.86
2016-11-08T07:49:22.841Z,29.97
2016-11-08T07:50:23.161Z,30.01
2016-11-08T07:51:23.171Z,30.01
2016-11-08T07:52:23.209Z,30.04
2016-11-08T07:53:23.496Z,30.04
2016-11-08T07:54:23.606Z,30.01
2016-11-08T07:55:23.281Z,30.04
2016-11-08T07:56:24.007Z,30.07
2016-11-08T07:57:23.214Z,29.97
2016-11-08T07:58:23.584Z,30
2016-11-08T07:59:23.232Z,30.02
2016-11-08T08:00:24.401Z,30
2016-11-08T08:01:22.988Z,30.17
2016-11-08T08:02:23.561Z,30.17
2016-11-08T08:03:23.247Z,30.15
2016-11-08T08:04:23.582Z,30.19
2016-11-08T08:05:23.605Z,30.22
2016-11-08T08:06:23.594Z,30.16
2016-11-08T08:07:23.341Z,30.16
2016-11-08T08:08:23.661Z,30.2
2016-11-08T08:09:23.618Z,30.16
2016-11-08T08:10:23.639Z,30.13
2016-11-08T08:11:24.458Z,30.19
2016-11-08T08:12:23.337Z,30.17
2016-11-08T08:13:23.072Z,30.2
2016-11-08T08:14:23.704Z,30.17
2016-11-08T08:15:23.095Z,30.19
2016-11-08T08:16:23.050Z,30.2
2016-11-08T08:17:23.055Z,30.24
2016-11-08T08:18:23.429Z,30.24
2016-11-08T08:19:23.782Z,30.24
2016-11-08T08:20:23.390Z,30.26
2016-11-08T08:21:23.765Z,30.19
2016-11-08T08:22:24.049Z,30.23
2016-11-08T08:23:23.519Z,30.31
2016-11-08T08:24:23.421Z,30.2
2016-11-08T08:25:23.854Z,30.35
2016-11-08T08:26:23.436Z,30.27
2016-11-08T08:27:23.807Z,30.22
2016-11-08T08:28:23.870Z,30.35
2016-11-08T08:29:24.418Z,30.37
2016-11-08T08:30:24.821Z,30.34
2016-11-08T08:31:23.940Z,30.34
2016-11-08T08:32:23.634Z,30.35
2016-11-08T08:33:24.304Z,30.32
2016-11-08T08:34:24.298Z,30.34
2016-11-08T08:35:23.510Z,30.24
2016-11-08T08:36:24.267Z,30.24
2016-11-08T08:37:24.576Z,30.23
2016-11-08T08:38:23.676Z,30.31
2016-11-08T08:39:24.698Z,30.31
2016-11-08T08:40:24.113Z,30.27
2016-11-08T08:41:23.608Z,30.22
2016-11-08T08:42:24.659Z,30.24
2016-11-08T08:44:23.928Z,30.29
2016-11-08T08:45:23.376Z,30.26
2016-11-08T08:46:23.745Z,30.42
2016-11-08T08:47:23.650Z,30.35
2016-11-08T08:48:24.051Z,30.35
2016-11-08T08:49:23.556Z,30.32
2016-11-08T08:50:23.987Z,30.34
2016-11-08T08:51:26.277Z,30.38
2016-11-08T08:52:23.744Z,30.37
2016-11-08T08:53:24.837Z,30.31
2016-11-08T08:54:24.024Z,30.35
2016-11-08T08:55:24.217Z,30.38
2016-11-08T08:56:24.223Z,30.38
2016-11-08T08:57:25.433Z,30.22
2016-11-08T08:58:24.106Z,30.35
2016-11-08T08:59:23.435Z,30.32
2016-11-08T09:00:24.258Z,30.37
2016-11-08T09:01:23.760Z,30.35
2016-11-08T09:02:24.121Z,30.24
2016-11-08T09:03:24.572Z,30.29
2016-11-08T09:04:23.988Z,30.24
2016-11-08T09:05:25.108Z,30.39
2016-11-08T09:06:24.158Z,30.19
2016-11-08T09:07:23.545Z,30.35
2016-11-08T09:08:25.567Z,30.26
2016-11-08T09:09:23.931Z,30.19
2016-11-08T09:10:25.206Z,30.26
2016-11-08T09:11:25.247Z,30.35
2016-11-08T09:12:24.851Z,30.37
2016-11-08T09:13:24.811Z,30.38
2016-11-08T09:14:25.179Z,30.32
2016-11-08T09:15:24.626Z,30.38
2016-11-08T09:16:24.082Z,30.22
2016-11-08T09:17:23.979Z,30.24
2016-11-08T09:18:24.364Z,30.23
2016-11-08T09:19:26.057Z,30.19
2016-11-08T09:20:24.280Z,30.26
2016-11-08T09:21:24.438Z,30.24
2016-11-08T09:22:24.570Z,30.22
2016-11-08T09:23:24.689Z,30.2
2016-11-08T09:24:23.942Z,30.2
2016-11-08T09:25:24.325Z,30.22
2016-11-08T09:26:24.045Z,30.2
2016-11-08T09:27:38.954Z,30.19
2016-11-08T09:28:23.932Z,30.16
2016-11-08T09:29:24.187Z,30.17
2016-11-08T09:31:27.068Z,30.17
2016-11-08T09:32:26.353Z,30.22
2016-11-08T09:33:24.172Z,30.11
2016-11-08T09:34:24.074Z,30.15
2016-11-08T09:35:24.386Z,30.1
2016-11-08T09:36:24.294Z,30.17
2016-11-08T09:37:25.822Z,30.24
2016-11-08T09:39:24.015Z,30.1
2016-11-08T09:40:25.835Z,30.15
2016-11-08T09:41:25.212Z,30.11
2016-11-08T09:42:23.792Z,30.15
2016-11-08T09:43:25.042Z,30.19
2016-11-08T09:44:25.407Z,30.15
2016-11-08T09:45:24.664Z,30.15
2016-11-08T09:46:24.882Z,30.19
2016-11-08T09:47:25.781Z,30.24
2016-11-08T09:48:25.381Z,30.35
2016-11-08T09:49:24.895Z,30.38
2016-11-08T09:50:25.305Z,30.31
2016-11-08T09:51:24.217Z,30.29
2016-11-08T09:52:25.836Z,30.26
2016-11-08T09:53:25.597Z,30.31
2016-11-08T09:54:25.169Z,30.35
2016-11-08T09:55:25.360Z,30.23
2016-11-08T09:57:24.367Z,30.29
2016-11-08T09:58:39.196Z,30.39
2016-11-08T09:59:25.423Z,30.29
2016-11-08T10:00:25.439Z,30.39
2016-11-08T10:01:24.927Z,30.32
2016-11-08T10:02:25.895Z,30.19
2016-11-08T10:03:27.750Z,30.27
2016-11-08T10:04:25.487Z,30.37
2016-11-08T10:05:39.971Z,30.32
2016-11-08T10:06:39.334Z,30.35
2016-11-08T10:07:23.927Z,30.35
2016-11-08T10:08:24.256Z,30.32
2016-11-08T10:09:24.621Z,30.27
2016-11-08T10:10:24.445Z,30.22
2016-11-08T10:11:24.301Z,30.23
2016-11-08T10:12:24.507Z,30.29
2016-11-08T10:13:24.378Z,30.37
2016-11-08T10:14:23.986Z,30.38
2016-11-08T10:15:24.688Z,30.46
2016-11-08T10:16:24.362Z,30.31
2016-11-08T10:17:24.109Z,30.38
2016-11-08T10:18:24.430Z,30.46
2016-11-08T10:19:25.157Z,30.42
2016-11-08T10:20:24.715Z,30.31
2016-11-08T10:21:24.350Z,30.34
2016-11-08T10:22:24.415Z,30.43
2016-11-08T10:23:24.368Z,30.32
2016-11-08T10:24:24.875Z,30.46
2016-11-08T10:25:24.695Z,30.49
2016-11-08T10:26:26.383Z,30.35
2016-11-08T10:27:24.452Z,30.45
2016-11-08T10:28:25.245Z,30.43
2016-11-08T10:29:24.460Z,30.42
2016-11-08T10:30:24.570Z,30.35
2016-11-08T10:31:24.931Z,30.37
2016-11-08T10:32:24.489Z,30.35
2016-11-08T10:33:24.583Z,30.39
2016-11-08T10:34:24.873Z,30.22
2016-11-08T10:35:25.821Z,30.34
2016-11-08T10:36:24.469Z,30.37
2016-11-08T10:37:24.847Z,30.43
2016-11-08T10:38:24.639Z,30.31
2016-11-08T10:39:24.543Z,30.32
2016-11-08T10:40:24.896Z,30.32
2016-11-08T10:41:24.884Z,30.29
2016-11-08T10:42:24.654Z,30.31
2016-11-08T10:43:24.584Z,30.38
2016-11-08T10:44:24.783Z,30.31
2016-11-08T10:45:24.231Z,30.37
2016-11-08T10:46:24.652Z,30.43
2016-11-08T10:47:24.964Z,30.29
2016-11-08T10:48:24.256Z,30.42
2016-11-08T10:49:26.265Z,30.38
2016-11-08T10:50:24.631Z,30.34
2016-11-08T10:51:24.417Z,30.35
2016-11-08T10:52:24.988Z,30.38
2016-11-08T10:53:24.970Z,30.37
2016-11-08T10:54:24.377Z,30.46
2016-11-08T10:55:24.777Z,30.43
2016-11-08T10:56:25.043Z,30.38
2016-11-08T10:57:24.690Z,30.45
2016-11-08T10:58:24.993Z,30.35
2016-11-08T10:59:24.812Z,30.39
2016-11-08T11:00:24.666Z,30.39
2016-11-08T11:01:24.708Z,30.42
2016-11-08T11:02:24.729Z,30.43
2016-11-08T11:03:24.759Z,30.43
2016-11-08T11:04:24.797Z,30.37
2016-11-08T11:05:24.869Z,30.39
2016-11-08T11:06:25.152Z,30.24
2016-11-08T11:07:24.933Z,30.38
2016-11-08T11:08:24.785Z,30.37
2016-11-08T11:09:24.841Z,30.34
2016-11-08T11:10:24.519Z,30.37
2016-11-08T11:11:24.855Z,30.37
2016-11-08T11:12:24.873Z,30.26
2016-11-08T11:13:25.213Z,30.27
2016-11-08T11:14:24.636Z,30.24
2016-11-08T11:15:25.139Z,30.17
2016-11-08T11:16:24.958Z,30.22
2016-11-08T11:17:25.241Z,30.1
2016-11-08T11:18:24.525Z,30.15
2016-11-08T11:19:24.957Z,30.13
2016-11-08T11:20:25.041Z,30.08
2016-11-08T11:21:25.586Z,30.02
2016-11-08T11:22:25.694Z,30.1
2016-11-08T11:23:25.039Z,30.08
2016-11-08T11:24:25.311Z,30.13
2016-11-08T11:25:24.935Z,30.01
2016-11-08T11:26:25.046Z,30.08
2016-11-08T11:27:25.382Z,30.04
2016-11-08T11:28:26.203Z,30.04
2016-11-08T11:29:24.944Z,30.13
2016-11-08T11:30:25.229Z,30.1
2016-11-08T11:31:25.276Z,29.98
2016-11-08T11:32:25.321Z,30.07
2016-11-08T11:33:26.096Z,29.92
2016-11-08T11:34:25.435Z,30.04
2016-11-08T11:35:25.415Z,30.07
2016-11-08T11:36:25.087Z,29.97
2016-11-08T11:37:24.712Z,30.05
2016-11-08T11:38:25.767Z,29.98
2016-11-08T11:39:24.731Z,29.97
2016-11-08T11:40:26.458Z,30.02
2016-11-08T11:41:25.084Z,30.15
2016-11-08T11:42:25.446Z,30.01
2016-11-08T11:43:24.815Z,30.01
2016-11-08T11:44:24.765Z,30.04
2016-11-08T11:45:25.418Z,30.01
2016-11-08T11:46:25.555Z,30.02
2016-11-08T11:47:25.911Z,29.97
2016-11-08T11:48:25.168Z,30.08
2016-11-08T11:49:25.208Z,30.1
2016-11-08T11:50:25.649Z,29.98
2016-11-08T11:51:25.501Z,29.98
2016-11-08T11:52:26.283Z,29.98
2016-11-08T11:53:25.420Z,30.02
2016-11-08T11:54:25.156Z,30
2016-11-08T11:55:25.634Z,29.98
2016-11-08T11:56:25.254Z,30.15
2016-11-08T11:57:25.681Z,30.01
2016-11-08T11:58:25.564Z,29.98
2016-11-08T11:59:26.486Z,30.11
2016-11-08T12:00:25.219Z,30.01
2016-11-08T12:01:25.372Z,30.02
2016-11-08T12:02:25.619Z,29.94
2016-11-08T12:03:25.294Z,30.02
2016-11-08T12:04:25.670Z,29.94
2016-11-08T12:05:25.324Z,29.87
2016-11-08T12:06:25.280Z,29.9
2016-11-08T12:07:25.496Z,29.89
2016-11-08T12:08:25.647Z,29.85
2016-11-08T12:09:25.710Z,29.89
2016-11-08T12:10:25.446Z,29.97
2016-11-08T12:11:26.513Z,29.92
2016-11-08T12:12:25.717Z,29.87
2016-11-08T12:13:26.391Z,29.97
2016-11-08T12:14:25.392Z,30
2016-11-08T12:15:25.291Z,29.92
2016-11-08T12:16:25.852Z,29.89
2016-11-08T12:17:25.509Z,29.82
2016-11-08T12:18:27.323Z,29.97
2016-11-08T12:19:25.221Z,29.97
2016-11-08T12:20:25.805Z,29.95
2016-11-08T12:21:25.926Z,29.86
2016-11-08T12:22:26.607Z,29.83
2016-11-08T12:23:26.622Z,29.73
2016-11-08T12:24:25.808Z,29.83
2016-11-08T12:25:25.576Z,29.82
2016-11-08T12:26:25.828Z,29.76
2016-11-08T12:27:25.938Z,29.83
2016-11-08T12:28:25.191Z,29.78
2016-11-08T12:29:25.599Z,29.8
2016-11-08T12:30:26.027Z,29.73
2016-11-08T12:31:25.490Z,29.79
2016-11-08T12:32:25.899Z,29.74
2016-11-08T12:33:25.930Z,29.7
2016-11-08T12:34:25.969Z,29.73
2016-11-08T12:35:25.327Z,29.74
2016-11-08T12:36:25.940Z,29.79
2016-11-08T12:37:25.546Z,29.79
2016-11-08T12:38:25.563Z,29.8
2016-11-08T12:39:25.570Z,29.89
2016-11-08T12:40:25.918Z,29.83
2016-11-08T12:41:26.017Z,29.86
2016-11-08T12:42:26.009Z,29.8
2016-11-08T12:43:25.644Z,29.9
2016-11-08T12:44:25.367Z,29.87
2016-11-08T12:45:25.992Z,29.9
2016-11-08T12:46:25.664Z,29.85
2016-11-08T12:47:27.555Z,29.95
2016-11-08T12:48:26.187Z,29.85
2016-11-08T12:49:26.087Z,29.89
2016-11-08T12:50:26.114Z,29.85
2016-11-08T12:51:25.767Z,29.94
2016-11-08T12:52:26.102Z,29.89
2016-11-08T12:53:25.438Z,29.92
2016-11-08T12:54:27.138Z,29.86
2016-11-08T12:55:26.081Z,29.94
2016-11-08T12:56:26.122Z,29.9
2016-11-08T12:57:25.839Z,29.9
2016-11-08T12:58:25.901Z,29.98
2016-11-08T12:59:26.112Z,30.04
2016-11-08T13:00:26.922Z,29.95